x

8465705 - New Haven, Ct (nwhc3) Weather Station

3:54pm - Sun 24th Sep 2017 All times are EDT. -4 hours from GMT.

  • Wind
    7mph, 7mph gusts
  • Sea Temp 73°f
  • Air Temp 74°f
  • Sea Pressure 1016.9mb
  • 8465705 - New Haven, Ct
  • 8465705 - New Haven, Ct

More Historic Weather Station data

Upgrade to MSW Pro to gain access to the past 30 days of data for over 8000 Wavebouys and Weather Stations around the globe.

Join

Comparision Forecast

View Surf forecast
   
Sun 09/24 3:54pm 7 7 mph 1016.9mb 73f 74f
3:48pm 7 8 mph 1017mb 73f 74f
3:42pm 8 8 mph 1017mb 73f 74f
3:36pm 7 8 mph 1017mb 73f 74f
3:30pm 7 8 mph 1017.1mb 73f 74f
3:24pm 8 8 mph 1017.1mb 73f 74f
3:18pm 8 8 mph 1017.1mb 73f 74f
3:12pm 8 9 mph 1017.1mb 73f 74f
3:06pm 7 8 mph 1017.2mb 73f 74f
3:00pm 8 8 mph 1017.2mb 73f 74f
2:54pm 7 8 mph 1017.2mb 73f 73f
2:48pm 7 8 mph 1017.3mb 73f 73f
2:42pm 7 8 mph 1017.4mb 73f 73f
2:36pm 7 8 mph 1017.3mb 73f 73f
2:30pm 7 8 mph 1017.4mb 73f 73f
2:24pm 8 9 mph 1017.4mb 73f 73f
2:18pm 8 9 mph 1017.5mb 73f 73f
2:12pm 7 8 mph 1017.5mb 73f 73f
2:06pm 7 8 mph 1017.5mb 73f 73f
2:00pm 8 9 mph 1017.5mb 73f 73f
1:54pm 7 10 mph 1017.5mb 72f 73f
1:48pm 6 9 mph 1017.5mb 72f 73f
1:42pm 9 9 mph 1017.5mb 73f 72f
1:36pm 8 9 mph 1017.5mb 73f 72f
1:30pm 7 8 mph 1017.7mb 73f 72f
1:24pm 6 8 mph 1017.7mb 73f 72f
1:18pm 8 9 mph 1017.7mb 73f 72f
1:12pm 6 7 mph 1017.7mb 73f 73f
1:06pm 6 8 mph 1017.9mb 72f 73f
1:00pm 7 9 mph 1017.8mb 72f 73f
12:54pm 8 10 mph 1017.9mb 72f 73f
12:48pm 9 10 mph 1017.9mb 72f 73f
12:42pm 10 11 mph 1018mb 72f 73f
12:36pm 9 10 mph 1018mb 72f 75f
12:30pm 3 3 mph 1018mb 72f 83f
12:24pm 3 6 mph 1017.9mb 72f 83f
12:18pm 5 5 mph 1017.9mb 72f 82f
12:12pm 2 3 mph 1018mb 72f 83f
12:06pm 1 5 mph 1018mb 72f 83f
12:00pm 5 6 mph 1018mb 72f 81f
11:54am 3 8 mph 1018mb 72f 82f
11:48am 2 7 mph 1018mb 72f 83f
11:42am 2 8 mph 1018mb 72f 82f
11:36am 3 8 mph 1018mb 72f 82f
11:30am 8 10 mph 1018mb 72f 80f
11:24am 6 11 mph 1018.1mb 72f 80f
11:18am 8 13 mph 1018.2mb 72f 80f
11:12am 8 11 mph 1018.2mb 72f 80f
11:06am 6 11 mph 1018.2mb 72f 80f
11:00am 6 11 mph 1018.1mb 72f 80f
10:54am 6 9 mph 1018.2mb 72f 79f
10:48am 8 9 mph 1018.2mb 72f 78f
10:42am 6 8 mph 1018.3mb 72f 78f
10:36am 8 9 mph 1018.3mb 72f 77f
10:30am 6 8 mph 1018.3mb 72f 78f
10:24am 6 10 mph 1018.3mb 72f 77f
10:18am 7 13 mph 1018.4mb 72f 77f
10:12am 6 11 mph 1018.4mb 72f 77f
10:06am 8 11 mph 1018.3mb 72f 76f
10:00am 6 11 mph 1018.3mb 72f 76f
9:54am 3 11 mph 1018.3mb 72f 76f
9:48am 3 11 mph 1018.3mb 72f 76f
9:42am 3 13 mph 1018.3mb 72f 75f
9:36am 7 11 mph 1018.2mb 72f 74f
9:30am 10 13 mph 1018.2mb 72f 73f
9:24am 10 11 mph 1018.2mb 72f 73f
9:18am 9 10 mph 1018.3mb 72f 73f
9:12am 5 9 mph 1018.4mb 72f 73f
9:06am 8 9 mph 1018.4mb 72f 73f
9:00am 5 9 mph 1018.4mb 72f 73f
8:54am 6 13 mph 1018.5mb 72f 72f
8:48am 7 14 mph 1018.4mb 72f 71f
8:42am 8 13 mph 1018.4mb 72f 71f
8:36am 8 13 mph 1018.3mb 72f 70f
8:30am 7 11 mph 1018.3mb 72f 69f
8:24am 7 11 mph 1018.4mb 72f 69f
8:18am 8 14 mph 1018.4mb 72f 69f
8:12am 7 11 mph 1018.4mb 72f 68f
8:06am 9 14 mph 1018.4mb 72f 68f
8:00am 9 15 mph 1018.4mb 72f 68f
7:54am 9 15 mph 1018.4mb 72f 68f
7:48am 10 14 mph 1018.3mb 72f 67f
7:42am 11 14 mph 1018.3mb 72f 67f
7:36am 10 14 mph 1018.4mb 72f 66f
7:30am 9 11 mph 1018.3mb 72f 66f
7:24am 7 11 mph 1018.3mb 72f 66f
7:18am 5 11 mph 1018.3mb 72f 66f
7:12am 6 11 mph 1018.3mb 72f 66f
7:06am 6 10 mph 1018.2mb 72f 66f
7:00am 6 10 mph 1018.2mb 72f 66f
6:54am 5 10 mph 1018.1mb 72f 66f
6:48am 5 9 mph 1018mb 72f 66f
6:42am 6 9 mph 1018mb 72f 66f
6:36am 7 9 mph 1018mb 72f 66f
6:30am 7 10 mph 1017.9mb 72f 66f
6:24am 5 7 mph 1017.9mb 72f 65f
6:18am 5 10 mph 1017.9mb 72f 65f
6:12am 9 11 mph 1017.8mb 72f 65f
6:06am 8 9 mph 1017.7mb 72f 65f
6:00am 8 9 mph 1017.7mb 72f 66f
5:54am 7 9 mph 1017.7mb 72f 66f
5:48am 9 14 mph 1017.7mb 72f 66f
5:42am 11 14 mph 1017.6mb 72f 67f
5:36am 10 13 mph 1017.6mb 72f 66f
5:30am 9 11 mph 1017.6mb 72f 66f
5:24am 8 10 mph 1017.6mb 72f 66f
5:18am 8 9 mph 1017.6mb 72f 66f
5:12am 8 10 mph 1017.5mb 72f 66f
5:06am 8 10 mph 1017.5mb 72f 66f
5:00am 8 9 mph 1017.5mb 72f 65f
4:54am 6 9 mph 1017.5mb 72f 66f
4:48am 5 7 mph 1017.5mb 72f 65f
4:42am 3 6 mph 1017.5mb 72f 66f
4:36am 5 6 mph 1017.4mb 72f 66f
4:30am 5 6 mph 1017.3mb 72f 66f
4:24am 5 8 mph 1017.3mb 72f 66f
4:18am 7 8 mph 1017.2mb 72f 66f
4:12am 6 7 mph 1017.2mb 72f 66f
4:06am 6 8 mph 1017.1mb 72f 66f
4:00am 6 8 mph 1017.1mb 72f 66f
3:54am 5 6 mph 1017.1mb 72f 66f
3:48am 6 6 mph 1017.1mb 72f 66f
3:42am 6 7 mph 1017.1mb 72f 66f
3:36am 5 6 mph 1017.1mb 72f 66f
3:30am 6 7 mph 1017mb 72f 66f
3:24am 5 6 mph 1016.9mb 72f 66f
3:18am 3 5 mph 1016.9mb 72f 65f
3:12am 5 6 mph 1016.9mb 72f 65f
3:06am 5 5 mph 1017mb 72f 65f
3:00am 3 5 mph 1017.1mb 72f 65f
2:54am 3 5 mph 1017mb 72f 65f
2:48am 3 3 mph 1017mb 72f 66f
2:42am 2 3 mph 1017mb 72f 66f
2:36am 3 5 mph 1017mb 72f 66f
2:30am 3 3 mph 1017.1mb 72f 66f
2:24am 1 2 mph 1017.1mb 72f 66f
2:18am 1 2 mph 1017.1mb 72f 66f
2:12am 2 3 mph 1017.1mb 72f 66f
2:06am 2 3 mph 1017.1mb 72f 66f
2:00am 3 5 mph 1017.2mb 72f 66f
1:54am 3 5 mph 1017.2mb 72f 66f
1:48am 3 6 mph 1017.2mb 72f 66f
1:42am 3 5 mph 1017.2mb 72f 66f
1:36am 5 7 mph 1017.1mb 72f 67f
1:30am 5 6 mph 1017.1mb 72f 67f
1:24am 5 6 mph 1017.1mb 72f 67f
1:18am 5 6 mph 1017.1mb 72f 67f
1:12am 5 6 mph 1017.1mb 72f 67f
1:06am 5 6 mph 1017.2mb 72f 67f
1:00am 6 6 mph 1017.2mb 72f 67f
12:54am 5 5 mph 1017.3mb 72f 67f
12:48am 3 5 mph 1017.4mb 72f 68f
12:42am 3 6 mph 1017.5mb 72f 68f
12:36am 5 7 mph 1017.5mb 72f 68f
12:30am 3 5 mph 1017.5mb 72f 68f
12:24am 3 5 mph 1017.4mb 72f 68f
12:18am 2 3 mph 1017.4mb 72f 68f
12:12am 1 2 mph 1017.4mb 72f 68f
12:06am 1 2 mph 1017.5mb 72f 68f
12:00am  -  2 mph 1017.5mb 72f 68f
Sat 09/23 11:54pm 1 2 mph 1017.5mb 72f 69f
11:48pm  -  2 mph 1017.5mb 72f 69f
11:42pm 1 2 mph 1017.6mb 72f 69f
11:36pm 1 1 mph 1017.5mb 72f 69f
11:30pm  -  0 mph 1017.4mb 72f 69f
11:24pm  -  1 mph 1017.4mb 72f 69f
11:18pm  -  3 mph 1017.4mb 72f 70f
11:12pm 2 3 mph 1017.4mb 72f 70f
11:06pm 2 2 mph 1017.3mb 72f 70f
11:00pm  -  3 mph 1017.3mb 72f 70f
10:54pm 2 3 mph 1017.3mb 72f 70f
10:48pm  -  2 mph 1017.3mb 72f 71f
10:42pm 2 2 mph 1017.3mb 72f 72f
10:36pm 2 5 mph 1017.3mb 72f 72f
10:30pm 5 5 mph 1017.2mb 72f 72f
10:24pm 5 5 mph 1017.2mb 72f 72f
10:18pm 3 6 mph 1017.2mb 72f 72f
10:12pm 5 6 mph 1017.2mb 72f 72f
10:06pm 3 3 mph 1017.2mb 72f 72f
10:00pm 2 3 mph 1017.2mb 72f 72f
9:54pm 2 3 mph 1017.2mb 72f 73f
9:48pm 2 5 mph 1017.2mb 72f 73f
9:42pm 3 6 mph 1017.2mb 72f 73f
9:36pm 3 5 mph 1017.1mb 72f 72f
9:30pm 3 7 mph 1017.1mb 72f 71f
9:24pm 6 7 mph 1017mb 72f 70f
9:18pm 2 2 mph 1016.9mb 72f 73f
9:12pm 2 2 mph 1016.9mb 72f 74f
9:06pm 1 2 mph 1016.9mb 72f 74f
9:00pm 1 2 mph 1016.9mb 72f 74f
8:48pm  -  0 mph 1016.8mb 72f 72f
8:42pm  -  0 mph 1016.7mb 72f 73f
8:36pm  -  0 mph 1016.7mb 72f 73f
8:30pm  -  0 mph 1016.7mb 72f 73f
8:24pm  -  0 mph 1016.6mb 72f 74f
8:18pm  -  1 mph 1016.6mb 72f 74f
8:12pm 1 2 mph 1016.6mb 72f 74f
8:06pm 2 2 mph 1016.7mb 72f 73f
8:00pm 2 3 mph 1016.7mb 72f 73f
7:54pm 2 3 mph 1016.7mb 72f 73f
7:48pm 2 3 mph 1016.6mb 72f 73f
7:42pm 3 3 mph 1016.5mb 72f 74f
7:36pm 3 3 mph 1016.4mb 72f 74f
7:30pm 3 3 mph 1016.4mb 72f 74f
7:24pm 2 3 mph 1016.3mb 72f 74f
7:18pm 3 3 mph 1016.2mb 72f 74f
7:12pm 2 5 mph 1016.2mb 72f 73f
7:06pm 5 5 mph 1016.2mb 72f 73f
7:00pm 6 7 mph 1016.2mb 72f 73f
6:54pm 7 8 mph 1016.1mb 72f 74f
6:48pm 5 6 mph 1016.2mb 72f 76f
6:42pm  -  6 mph 1016.1mb 72f 81f
6:36pm 5 7 mph 1016mb 72f 83f
6:30pm 7 9 mph 1015.9mb 72f 84f
6:24pm 7 10 mph 1015.9mb 72f 84f
6:18pm 8 11 mph 1015.9mb 72f 84f
6:12pm 8 13 mph 1015.8mb 72f 84f
6:06pm 8 14 mph 1015.7mb 72f 84f
6:00pm 11 14 mph 1015.6mb 72f 85f
5:54pm 9 14 mph 1015.5mb 72f 84f
5:48pm 10 13 mph 1015.5mb 72f 85f
5:42pm 9 13 mph 1015.5mb 72f 85f
5:36pm 10 14 mph 1015.5mb 72f 85f
5:30pm 10 14 mph 1015.5mb 72f 86f
5:24pm 11 16 mph 1015.4mb 72f 86f
5:18pm 10 16 mph 1015.4mb 72f 86f
5:12pm 14 17 mph 1015.3mb 72f 86f
5:06pm 9 16 mph 1015.3mb 72f 85f
5:00pm 13 16 mph 1015.2mb 72f 86f
4:54pm 11 15 mph 1015.3mb 72f 86f
4:48pm 13 15 mph 1015.3mb 72f 85f
4:42pm 10 16 mph 1015.3mb 72f 85f
4:36pm 9 13 mph 1015.2mb 72f 85f
4:30pm 8 14 mph 1015.2mb 72f 85f
4:24pm 8 10 mph 1015.3mb 72f 85f
4:18pm 10 14 mph 1015.3mb 72f 85f
4:12pm 10 13 mph 1015.3mb 72f 85f
4:06pm 9 13 mph 1015.3mb 72f 85f
4:00pm 10 16 mph 1015.3mb 72f 85f
3:54pm 11 15 mph 1015.2mb 72f 85f
3:48pm 11 17 mph 1015.2mb 72f 84f
3:42pm 13 18 mph 1015.2mb 72f 84f
3:36pm 14 16 mph 1015.3mb 72f 84f
3:30pm 13 18 mph 1015.4mb 72f 84f
3:24pm 14 18 mph 1015.4mb 72f 83f
3:18pm 15 18 mph 1015.5mb 72f 83f
3:12pm 11 20 mph 1015.6mb 72f 83f
3:06pm 15 21 mph 1015.6mb 72f 84f
3:00pm 14 17 mph 1015.6mb 72f 84f
2:54pm 10 17 mph 1015.7mb 72f 83f
2:48pm 10 16 mph 1015.7mb 72f 82f
2:42pm 15 17 mph 1015.7mb 72f 83f
2:36pm 13 15 mph 1015.8mb 72f 82f
2:30pm 13 15 mph 1015.8mb 72f 81f
2:24pm 10 16 mph 1015.8mb 72f 82f
2:18pm 13 18 mph 1015.9mb 72f 82f
2:12pm 15 18 mph 1015.9mb 72f 82f
2:06pm 11 21 mph 1016mb 72f 81f
2:00pm 14 17 mph 1016mb 72f 81f
1:54pm 16 20 mph 1016mb 72f 81f
1:48pm 15 20 mph 1016.1mb 72f 80f
1:42pm 11 18 mph 1016.3mb 72f 80f
1:36pm 14 20 mph 1016.4mb 72f 80f
1:30pm 15 21 mph 1016.3mb 72f 80f
1:24pm 11 20 mph 1016.3mb 72f 79f
1:18pm 10 20 mph 1016.4mb 72f 79f
1:12pm 7 15 mph 1016.3mb 72f 79f
1:06pm 10 16 mph 1016.3mb 72f 79f
1:00pm 13 17 mph 1016.3mb 72f 79f
12:54pm 11 17 mph 1016.4mb 72f 79f
12:48pm 11 14 mph 1016.5mb 72f 79f
12:42pm 10 15 mph 1016.5mb 72f 78f
12:36pm 10 14 mph 1016.5mb 72f 77f
12:30pm 9 13 mph 1016.5mb 72f 78f
12:24pm 11 14 mph 1016.6mb 72f 77f
12:18pm 7 16 mph 1016.7mb 71f 77f
12:12pm 10 15 mph 1016.8mb 71f 77f
12:06pm 11 14 mph 1016.8mb 71f 78f
12:00pm 9 14 mph 1016.7mb 71f 77f
11:54am 10 14 mph 1016.8mb 71f 77f
11:48am 10 16 mph 1016.8mb 71f 76f
11:42am 14 20 mph 1016.8mb 71f 76f
11:36am 13 18 mph 1016.9mb 71f 76f
11:30am 14 18 mph 1016.8mb 71f 76f
11:24am 15 20 mph 1016.8mb 71f 76f
11:18am 15 18 mph 1016.8mb 71f 75f
11:12am 15 20 mph 1016.9mb 71f 75f
11:06am 16 21 mph 1017mb 71f 75f
11:00am 16 21 mph 1017mb 71f 74f
10:54am 15 20 mph 1017mb 71f 75f
10:48am 16 21 mph 1017mb 71f 74f
10:42am 20 23 mph 1016.8mb 71f 74f
10:36am 15 18 mph 1016.9mb 71f 74f
10:30am 15 18 mph 1016.9mb 71f 74f
10:24am 13 17 mph 1016.9mb 71f 74f
10:18am 14 20 mph 1016.7mb 71f 74f
10:12am 17 21 mph 1016.6mb 71f 73f
10:06am 16 22 mph 1016.6mb 71f 73f
10:00am 16 21 mph 1016.6mb 71f 73f
9:54am 13 20 mph 1016.7mb 71f 73f
9:48am 15 21 mph 1016.7mb 71f 72f
9:42am 14 22 mph 1016.7mb 71f 72f
9:36am 16 21 mph 1016.7mb 71f 72f
9:30am 16 22 mph 1016.7mb 71f 72f
9:24am 16 21 mph 1016.6mb 71f 71f
9:18am 17 24 mph 1016.6mb 71f 71f
9:12am 20 24 mph 1016.6mb 71f 71f
9:06am 18 22 mph 1016.5mb 71f 71f
9:00am 17 22 mph 1016.5mb 71f 70f
8:54am 16 20 mph 1016.3mb 71f 70f
8:48am 16 21 mph 1016.2mb 71f 70f
8:42am 17 21 mph 1016mb 71f 70f
8:36am 15 18 mph 1015.9mb 71f 70f
8:30am 16 20 mph 1015.8mb 71f 70f
8:24am 13 16 mph 1015.8mb 71f 70f
8:18am 15 20 mph 1015.7mb 71f 69f
8:12am 13 15 mph 1015.8mb 71f 69f
8:06am 14 17 mph 1015.8mb 71f 69f
8:00am 14 18 mph 1015.7mb 71f 69f
7:54am 13 18 mph 1015.9mb 71f 69f
7:48am 11 17 mph 1015.7mb 71f 69f
7:42am 11 16 mph 1015.4mb 71f 69f
7:36am 14 17 mph 1015.2mb 71f 69f
7:30am 11 16 mph 1015.2mb 71f 69f
7:24am 13 16 mph 1015.1mb 71f 69f
7:18am 13 15 mph 1015.2mb 71f 69f
7:12am 13 20 mph 1015.2mb 71f 69f
7:06am 15 18 mph 1015.2mb 71f 69f
7:00am 13 18 mph 1015.2mb 71f 69f
6:54am 13 17 mph 1015.1mb 71f 69f
6:48am 15 17 mph 1015.1mb 71f 69f
6:42am 13 18 mph 1015.1mb 71f 69f
6:36am 15 18 mph 1015mb 71f 69f
6:30am 14 17 mph 1015.1mb 71f 69f
6:24am 15 18 mph 1015.1mb 71f 70f
6:18am 15 21 mph 1015.1mb 71f 70f
6:12am 15 21 mph 1015mb 71f 70f
6:06am 16 22 mph 1014.9mb 71f 70f
6:00am 16 22 mph 1015mb 71f 70f
5:54am 14 20 mph 1014.9mb 71f 70f
5:48am 16 22 mph 1014.8mb 71f 70f
5:42am 14 22 mph 1014.8mb 71f 70f
5:36am 15 20 mph 1014.9mb 71f 70f
5:30am 16 21 mph 1014.8mb 71f 70f
5:24am 13 21 mph 1014.9mb 71f 70f
5:18am 15 21 mph 1014.8mb 71f 70f
5:12am 17 24 mph 1014.5mb 71f 70f
5:06am 17 22 mph 1014.4mb 71f 70f
5:00am 16 22 mph 1014.4mb 71f 70f
4:54am 16 22 mph 1014.4mb 71f 70f
4:48am 15 23 mph 1014.3mb 71f 70f
4:42am 18 24 mph 1014.3mb 71f 70f
4:36am 21 28 mph 1014.2mb 71f 70f
4:30am 21 24 mph 1014.2mb 71f 70f
4:24am 21 25 mph 1014.3mb 72f 70f
4:18am 22 25 mph 1014.4mb 72f 70f
4:12am 21 24 mph 1014.4mb 72f 70f
4:06am 20 26 mph 1014.4mb 72f 70f
4:00am 17 24 mph 1014.7mb 72f 69f
3:54am 17 24 mph 1014.7mb 72f 69f
3:48am 18 24 mph 1014.5mb 72f 69f
3:42am 17 25 mph 1014.5mb 72f 69f
3:36am 21 24 mph 1014.4mb 72f 69f
3:30am 17 22 mph 1014.5mb 72f 69f
3:24am 17 23 mph 1014.5mb 72f 69f
3:18am 18 23 mph 1014.5mb 72f 69f
3:12am 18 26 mph 1014.5mb 72f 69f
3:06am 20 24 mph 1014.5mb 72f 69f
3:00am 16 21 mph 1014.6mb 72f 69f
2:54am 17 23 mph 1014.5mb 72f 69f
2:48am 17 24 mph 1014.5mb - -
2:42am 18 24 mph 1014.4mb - -
2:36am 17 22 mph 1014.3mb - -
2:30am 18 23 mph 1014.4mb 72f 69f
2:24am 16 21 mph 1014.4mb 72f 69f
2:18am 15 22 mph 1014.5mb 72f 70f
2:12am 15 20 mph 1014.4mb 72f 69f
2:06am 15 21 mph 1014.4mb 72f 69f
2:00am 15 22 mph 1014.4mb 72f 69f
1:54am 17 22 mph 1014.5mb 72f 69f
1:48am 15 20 mph 1014.5mb 72f 69f
1:42am 14 21 mph 1014.6mb 72f 69f
1:36am 17 25 mph 1014.5mb 72f 70f
1:30am 15 22 mph 1014.6mb 72f 70f
1:24am 18 24 mph 1014.5mb 72f 70f
1:18am 21 26 mph 1014.3mb 72f 70f
1:12am 17 21 mph 1014.3mb 72f 69f
1:06am 20 26 mph 1014.4mb 72f 69f
1:00am 16 25 mph 1014.4mb 72f 69f
12:54am 17 22 mph 1014.4mb 72f 69f
12:48am 16 24 mph 1014.4mb 72f 69f
12:42am 17 24 mph 1014.3mb 72f 69f
12:36am 18 24 mph 1014.3mb 72f 69f
12:30am 21 23 mph 1014.4mb 72f 69f
12:24am 20 25 mph 1014.5mb 72f 69f
12:18am 18 30 mph 1014.3mb 72f 69f
12:12am 20 26 mph 1014.4mb 72f 69f
12:06am 20 26 mph 1014.3mb 72f 69f
12:00am 16 23 mph 1014.3mb 72f 69f
Fri 09/22 11:54pm 18 26 mph 1014.4mb 72f 69f
11:48pm 15 28 mph 1014.6mb 72f 69f
11:42pm 14 23 mph 1014.5mb 72f 69f
11:36pm 16 23 mph 1014.6mb 72f 69f
11:30pm 22 29 mph 1014.6mb 72f 70f
11:24pm 14 22 mph 1014.7mb 72f 70f
11:18pm 15 25 mph 1014.7mb 72f 70f
11:12pm 21 24 mph 1014.6mb 72f 70f
11:06pm 17 22 mph 1014.6mb 72f 70f
11:00pm 18 26 mph 1014.6mb 72f 70f
10:54pm 16 20 mph 1014.6mb 72f 70f
10:48pm 18 25 mph 1014.5mb 72f 70f
10:42pm 15 22 mph 1014.5mb 72f 70f
10:36pm 14 21 mph 1014.5mb 72f 70f
10:30pm 16 22 mph 1014.5mb 72f 70f
10:24pm 16 21 mph 1014.5mb 72f 70f
10:18pm 16 20 mph 1014.4mb 72f 70f
10:12pm 17 22 mph 1014.4mb 72f 70f
10:06pm 14 21 mph 1014.5mb 72f 70f
10:00pm 15 21 mph 1014.4mb 72f 70f
9:54pm 15 22 mph 1014.4mb 72f 70f
9:48pm 17 23 mph 1014.4mb 72f 71f
9:42pm 17 22 mph 1014.2mb 72f 71f
9:36pm 16 29 mph 1014.3mb 72f 71f
9:30pm 21 32 mph 1014.3mb 72f 71f
9:24pm 20 26 mph 1014.3mb 72f 71f
9:18pm 21 28 mph 1014.3mb 72f 71f
9:12pm 17 23 mph 1014.4mb 72f 71f
9:06pm 21 32 mph 1014.4mb 72f 71f
9:00pm 22 31 mph 1014.3mb 72f 71f
8:54pm 21 29 mph 1014.3mb 72f 71f
8:48pm 20 30 mph 1014.3mb 72f 71f
8:42pm 22 30 mph 1014.2mb 72f 72f
8:36pm 23 33 mph 1014mb 72f 72f
8:30pm 25 31 mph 1013.9mb 72f 72f
8:24pm 22 31 mph 1014.1mb 72f 72f
8:18pm 21 30 mph 1014.2mb 72f 73f
8:12pm 21 31 mph 1014mb 72f 73f
8:06pm 16 22 mph 1014.1mb 72f 73f
8:00pm 18 25 mph 1013.9mb 72f 73f
7:54pm 16 23 mph 1013.8mb 72f 73f
7:48pm 17 23 mph 1014mb 72f 73f
7:42pm 16 23 mph 1013.9mb 72f 73f
7:36pm 14 17 mph 1014.1mb 72f 74f
7:30pm 14 21 mph 1014mb 72f 74f
7:24pm 16 21 mph 1013.9mb 72f 74f
7:18pm 16 22 mph 1013.8mb 72f 74f
7:12pm 16 22 mph 1013.8mb 72f 74f
7:06pm 18 24 mph 1013.6mb 72f 74f
7:00pm 14 22 mph 1013.6mb 72f 74f
6:54pm 20 28 mph 1013.4mb 72f 74f
6:48pm 17 28 mph 1013.5mb 72f 74f
6:42pm 17 23 mph 1013.6mb 72f 74f
6:36pm 20 30 mph 1013.5mb 72f 75f
6:30pm 21 29 mph 1013.4mb 72f 75f
6:24pm 18 26 mph 1013.5mb 72f 75f
6:18pm 21 26 mph 1013.4mb 72f 75f
6:12pm 15 22 mph 1013.6mb 72f 75f
6:06pm 18 25 mph 1013.6mb 72f 75f
6:00pm 20 26 mph 1013.5mb 72f 76f
5:54pm 22 26 mph 1013.4mb 72f 76f
5:48pm 20 25 mph 1013.4mb 72f 76f
5:42pm 15 24 mph 1013.5mb 72f 76f
5:36pm 21 31 mph 1013.4mb 72f 76f
5:30pm 20 25 mph 1013.4mb 72f 76f
5:24pm 21 28 mph 1013.3mb 72f 76f
5:18pm 22 29 mph 1013.3mb 72f 76f
5:12pm 21 32 mph 1013.3mb 72f 76f
5:06pm 22 29 mph 1013.3mb 72f 76f
5:00pm 20 26 mph 1013.4mb 72f 76f
4:54pm 21 29 mph 1013.1mb 72f 76f
4:48pm 25 31 mph 1013mb 72f 77f
4:42pm 18 23 mph 1013.1mb 72f 77f
4:36pm 20 29 mph 1013.1mb 72f 77f
4:30pm 24 32 mph 1013mb 72f 77f
4:24pm 26 34 mph 1012.9mb 72f 76f
4:18pm 29 34 mph 1012.9mb 72f 76f
4:12pm 21 29 mph 1013.2mb 72f 77f
4:06pm 21 25 mph 1013.2mb 72f 77f
4:00pm 18 31 mph 1013.2mb 72f 76f
3:54pm 20 29 mph 1013.2mb 72f 76f
3:48pm 20 26 mph 1013.1mb 72f 76f
3:42pm 18 28 mph 1013.2mb 72f 76f
3:36pm 23 32 mph 1013.1mb 72f 76f
3:30pm 23 30 mph 1013.1mb 72f 76f
3:24pm 21 31 mph 1013.3mb 72f 76f
3:18pm 22 28 mph 1013.3mb 72f 75f
3:12pm 22 30 mph 1013.3mb 72f 76f
3:06pm 22 30 mph 1013.2mb 72f 75f
3:00pm 22 28 mph 1013.4mb 72f 76f
2:54pm 22 26 mph 1013.3mb 72f 76f
2:48pm 18 33 mph 1013.4mb 72f 75f
2:42pm 26 31 mph 1013.3mb 72f 75f
2:36pm 23 32 mph 1013.4mb 72f 75f
2:30pm 24 30 mph 1013.3mb 72f 75f
2:24pm 21 29 mph 1013.4mb 72f 76f
2:18pm 20 29 mph 1013.6mb 72f 75f
2:12pm 21 29 mph 1013.6mb 72f 75f
2:06pm 21 26 mph 1013.4mb 72f 75f
2:00pm 22 28 mph 1013.5mb 72f 75f
1:54pm 20 31 mph 1013.6mb 72f 75f
1:48pm 23 29 mph 1013.5mb 72f 75f
1:42pm 21 30 mph 1013.7mb 72f 75f
1:36pm 22 29 mph 1013.8mb 72f 74f
1:30pm 20 28 mph 1013.9mb 72f 74f
1:24pm 17 30 mph 1014mb 72f 74f
1:18pm 23 28 mph 1013.9mb 72f 74f
1:12pm 17 24 mph 1014.2mb 72f 74f
1:06pm 22 26 mph 1014.2mb 72f 73f
1:00pm 21 28 mph 1014.3mb 72f 73f
12:54pm 20 23 mph 1014.4mb 72f 73f
12:48pm 17 29 mph 1014.5mb 72f 73f
12:42pm 21 29 mph 1014.5mb 72f 73f
12:36pm 22 26 mph 1014.5mb 72f 72f
12:30pm 23 30 mph 1014.6mb 72f 72f
12:24pm 24 29 mph 1014.5mb 72f 72f
12:18pm 23 31 mph 1014.6mb 72f 72f
12:12pm 26 36 mph 1014.5mb 72f 72f
12:06pm 21 29 mph 1014.7mb 72f 72f
12:00pm 25 33 mph 1014.6mb 72f 72f
11:54am 23 29 mph 1014.7mb 72f 72f
11:48am 25 31 mph 1014.7mb 72f 72f
11:42am 23 29 mph 1014.6mb 72f 72f
11:36am 23 30 mph 1014.6mb 72f 72f
11:30am 25 30 mph 1014.5mb 72f 71f
11:24am 18 28 mph 1014.6mb 72f 72f
11:18am 22 28 mph 1014.6mb 72f 71f
11:12am 22 28 mph 1014.7mb 72f 71f
11:06am 23 30 mph 1014.5mb 72f 71f
11:00am 23 29 mph 1014.5mb 72f 71f
10:54am 23 29 mph 1014.4mb 72f 71f
10:48am 22 28 mph 1014.6mb 72f 71f
10:42am 22 30 mph 1014.6mb 72f 71f
10:36am 21 26 mph 1014.6mb 72f 70f
10:30am 21 29 mph 1014.7mb 72f 70f
10:24am 24 31 mph 1014.8mb 72f 70f
10:18am 22 31 mph 1014.8mb 72f 70f
10:12am 20 31 mph 1014.8mb 72f 70f
10:06am 16 28 mph 1014.8mb 72f 69f
10:00am 26 34 mph 1014.8mb 72f 69f
9:54am 22 29 mph 1014.7mb 72f 69f
9:48am 18 31 mph 1014.8mb 72f 69f
9:42am 21 32 mph 1014.8mb 72f 69f
9:36am 22 36 mph 1014.8mb 72f 68f
9:30am 20 28 mph 1014.8mb 72f 68f
9:24am 24 32 mph 1014.6mb 72f 68f
9:18am 21 32 mph 1014.7mb 72f 68f
9:12am 20 31 mph 1014.9mb 72f 68f
9:06am 18 33 mph 1014.8mb 72f 67f
9:00am 23 30 mph 1014.8mb 72f 67f
8:54am 22 29 mph 1015mb 72f 67f
8:48am 21 31 mph 1014.9mb 72f 67f
8:42am 20 29 mph 1014.9mb 72f 67f
8:36am 26 33 mph 1014.8mb 72f 66f
8:30am 21 31 mph 1014.8mb 72f 66f
8:24am 24 31 mph 1014.7mb 72f 66f
8:18am 22 30 mph 1014.7mb 72f 66f
8:12am 22 29 mph 1014.8mb 72f 66f
8:06am 23 30 mph 1014.9mb 72f 66f
8:00am 20 26 mph 1014.8mb 72f 66f
7:54am 22 28 mph 1014.7mb 72f 66f
7:48am 18 26 mph 1014.8mb 72f 66f
7:42am 20 26 mph 1014.9mb 72f 65f
7:36am 18 26 mph 1014.9mb 72f 65f
7:30am 24 32 mph 1014.8mb 72f 65f
7:24am 21 30 mph 1014.8mb 72f 65f
7:18am 23 31 mph 1014.7mb 72f 65f
7:12am 24 31 mph 1014.6mb 72f 65f
7:06am 21 30 mph 1014.7mb 72f 66f
7:00am 22 29 mph 1014.7mb 72f 66f
6:54am 23 28 mph 1014.6mb 72f 66f
6:48am 21 30 mph 1014.6mb 72f 66f
6:42am 21 32 mph 1014.5mb 72f 66f
6:36am 24 33 mph 1014.4mb 72f 66f
6:30am 22 30 mph 1014.3mb 72f 66f
6:24am 22 29 mph 1014.5mb 72f 66f
6:18am 26 34 mph 1014.3mb 72f 66f
6:12am 23 30 mph 1014.3mb 72f 66f
6:06am 22 29 mph 1014.4mb 72f 66f
6:00am 22 29 mph 1014.2mb 72f 66f
5:54am 20 24 mph 1014.3mb 72f 66f
5:48am 23 32 mph 1014.2mb 72f 66f
5:42am 23 33 mph 1014.2mb 72f 66f
5:36am 21 30 mph 1014.2mb 72f 66f
5:30am 21 32 mph 1014.2mb 72f 66f
5:24am 23 31 mph 1014.1mb 72f 67f
5:18am 22 33 mph 1014.2mb 72f 67f
5:12am 25 33 mph 1014.1mb 72f 66f
5:06am 24 38 mph 1014mb 72f 67f
5:00am 22 30 mph 1014.1mb 72f 67f
4:54am 26 34 mph 1014.1mb 72f 67f
4:48am 23 31 mph 1014.3mb 72f 67f
4:42am 22 28 mph 1014.4mb 72f 67f
4:36am 22 31 mph 1014.3mb 72f 67f
4:30am 22 31 mph 1014.2mb 72f 67f
4:24am 23 32 mph 1014.1mb 72f 67f
4:18am 23 31 mph 1013.9mb 72f 67f
4:12am 22 28 mph 1014mb 72f 67f
4:06am 22 32 mph 1014.1mb 72f 67f
4:00am 20 36 mph 1014.2mb 72f 67f
3:54am 23 34 mph 1014.3mb 72f 67f
3:48am 21 32 mph 1014.3mb 72f 67f
3:42am 20 26 mph 1014.1mb 72f 67f
3:36am 21 30 mph 1014.1mb 72f 67f
3:30am 22 28 mph 1014.1mb 72f 67f
3:24am 25 32 mph 1014.2mb 72f 68f
3:18am 22 36 mph 1014.4mb 72f 68f
3:12am 23 31 mph 1014.3mb 72f 68f
3:06am 21 28 mph 1014.4mb 72f 68f
3:00am 22 28 mph 1014.3mb 72f 68f
2:54am 22 32 mph 1014.2mb 72f 68f
2:48am 23 29 mph 1014.1mb 72f 68f
2:42am 21 29 mph 1014.4mb 72f 68f
2:36am 20 24 mph 1014.6mb 72f 68f
2:30am 21 28 mph 1014.8mb 73f 68f
2:24am 20 25 mph 1014.9mb 73f 68f
2:18am 20 26 mph 1014.9mb 73f 68f
2:12am 18 25 mph 1015mb 73f 68f
2:06am 17 26 mph 1015.1mb 73f 68f
2:00am 17 24 mph 1015.2mb 73f 68f
1:54am 18 28 mph 1015.3mb 73f 69f
1:48am 16 22 mph 1015.5mb - -
1:42am 15 24 mph 1015.5mb - -
1:36am 18 25 mph 1015.4mb - -
1:30am 13 20 mph 1015.6mb 73f 69f
1:24am 14 23 mph 1015.7mb 73f 69f
1:18am 17 26 mph 1015.6mb 73f 69f
1:12am 20 25 mph 1015.5mb 73f 69f
1:06am 16 24 mph 1015.7mb 73f 69f
1:00am 14 22 mph 1015.8mb 73f 69f
12:54am 13 23 mph 1015.8mb 73f 69f
12:48am 15 18 mph 1015.7mb 73f 69f
12:42am 18 23 mph 1015.8mb 73f 69f
12:36am 15 22 mph 1015.7mb 73f 69f
12:30am 14 21 mph 1015.8mb 73f 69f
12:24am 15 22 mph 1015.8mb 73f 69f
12:18am 14 22 mph 1015.8mb 73f 69f
12:12am 14 18 mph 1015.8mb 73f 69f
12:06am 16 21 mph 1015.8mb 73f 69f
12:00am 16 23 mph 1015.9mb 73f 69f
Thu 09/21 11:54pm 14 22 mph 1015.9mb 73f 69f
11:48pm 15 23 mph 1015.9mb 73f 69f
11:42pm 17 24 mph 1015.8mb 73f 69f
11:36pm 20 25 mph 1015.8mb 73f 70f
11:30pm 18 25 mph 1015.7mb 73f 70f
11:24pm 17 24 mph 1015.8mb 73f 70f
11:18pm 15 23 mph 1016mb 73f 70f
11:12pm 16 21 mph 1016.1mb 73f 70f
11:06pm 11 17 mph 1016.2mb 73f 70f
11:00pm 11 17 mph 1016.3mb 73f 70f
10:54pm 16 21 mph 1016.3mb 73f 70f
10:48pm 14 20 mph 1016.2mb 73f 70f
10:42pm 13 21 mph 1016.2mb 73f 70f
10:36pm 11 16 mph 1016.2mb 73f 70f
10:30pm 10 20 mph 1016.4mb 73f 70f
10:24pm 14 16 mph 1016.4mb 73f 70f
10:18pm 13 17 mph 1016.5mb 73f 70f
10:12pm 15 18 mph 1016.4mb 73f 70f
10:06pm 13 17 mph 1016.5mb 73f 71f
10:00pm 14 16 mph 1016.5mb 73f 71f
9:54pm 14 22 mph 1016.5mb 73f 71f
9:48pm 11 16 mph 1016.5mb 73f 71f
9:42pm 14 20 mph 1016.4mb 73f 71f
9:36pm 14 17 mph 1016.3mb 73f 71f
9:30pm 14 17 mph 1016.2mb 73f 71f
9:24pm 15 21 mph 1016.1mb 73f 71f
9:18pm 15 18 mph 1016.1mb 73f 71f
9:12pm 13 16 mph 1016.2mb 73f 71f
9:06pm 11 15 mph 1016.2mb 73f 71f
9:00pm 10 16 mph 1016.2mb 73f 71f
8:54pm 13 16 mph 1016.2mb 73f 72f
8:48pm 16 21 mph 1016.1mb 73f 72f
8:42pm 14 23 mph 1016.2mb 73f 72f
8:36pm 15 20 mph 1016.2mb 73f 72f
8:30pm 13 17 mph 1016.3mb 73f 72f
8:24pm 14 17 mph 1016.3mb 73f 72f
8:18pm 10 15 mph 1016.2mb 73f 72f
8:12pm 10 18 mph 1016.2mb 73f 72f
8:06pm 13 15 mph 1016mb 73f 72f
8:00pm 14 17 mph 1015.9mb 73f 72f
7:54pm 14 16 mph 1015.8mb 73f 72f
7:48pm 14 17 mph 1015.9mb 73f 73f
7:42pm 14 16 mph 1015.8mb 73f 73f
7:36pm 13 14 mph 1015.8mb 73f 73f
7:30pm 11 14 mph 1015.8mb 73f 73f
7:24pm 9 14 mph 1015.8mb 73f 73f
7:18pm 11 15 mph 1015.7mb 73f 73f
7:12pm 13 16 mph 1015.7mb 73f 73f
7:06pm 11 17 mph 1015.7mb 73f 73f
7:00pm 10 14 mph 1015.8mb 73f 73f
6:54pm 11 16 mph 1015.8mb 73f 73f
6:48pm 13 16 mph 1015.8mb 73f 73f
6:42pm 9 15 mph 1015.8mb 73f 73f
6:36pm 10 14 mph 1015.8mb 73f 74f
6:30pm 10 13 mph 1015.8mb 73f 74f
6:24pm 8 13 mph 1015.8mb 73f 74f
6:18pm 8 14 mph 1015.8mb 73f 74f
6:12pm 9 14 mph 1015.8mb 73f 74f
6:06pm 10 15 mph 1015.7mb 73f 74f
6:00pm 11 15 mph 1015.6mb 73f 74f
5:54pm 11 15 mph 1015.5mb 73f 74f
5:48pm 11 16 mph 1015.4mb 73f 74f
5:42pm 13 17 mph 1015.4mb 73f 75f
5:36pm 13 17 mph 1015.4mb 73f 75f
5:30pm 16 21 mph 1015.3mb 73f 75f
5:24pm 13 21 mph 1015.3mb 73f 75f
5:18pm 15 22 mph 1015.3mb 73f 75f
5:12pm 17 22 mph 1015.2mb 73f 75f
5:06pm 16 23 mph 1015.3mb 73f 75f
5:00pm 18 24 mph 1015.3mb 73f 75f
4:54pm 13 17 mph 1015.3mb 73f 75f
4:48pm 14 20 mph 1015.3mb 73f 75f
4:42pm 13 18 mph 1015.3mb 73f 75f
4:36pm 14 16 mph 1015.2mb 73f 75f
4:30pm 11 17 mph 1015.2mb 73f 75f
4:24pm 13 16 mph 1015.1mb 73f 75f
4:18pm 14 22 mph 1015mb 73f 75f
4:12pm 15 21 mph 1015mb 73f 75f
4:06pm 15 22 mph 1015mb 73f 75f
4:00pm 16 21 mph 1014.9mb 73f 75f
3:54pm 13 18 mph 1015mb 73f 75f
3:48pm 15 22 mph 1015mb 73f 75f
3:42pm 15 22 mph 1015mb 73f 75f
3:36pm 11 16 mph 1015.1mb 73f 75f
3:30pm  -  mph 1015.1mb 73f 75f
3:24pm  -  mph 1015mb 73f 75f
3:18pm  -  mph 1014.9mb 73f 75f
3:12pm  -  mph 1014.9mb 73f 75f
3:06pm  -  mph 1015mb 73f 75f
3:00pm  -  mph 1015mb 73f 75f
2:54pm  -  mph 1015.1mb 73f 75f
2:48pm  -  mph 1015mb 73f 75f
2:42pm  -  mph 1015mb 73f 75f
2:36pm  -  mph 1015.1mb 73f 75f
2:30pm  -  mph 1015mb 73f 75f
2:24pm  -  mph 1015mb 73f 75f
2:18pm  -  mph 1014.9mb 73f 75f
2:12pm  -  mph 1014.9mb 73f 75f
2:06pm  -  mph 1015mb 73f 75f
2:00pm  -  mph 1015mb 73f 74f
1:54pm  -  mph 1015mb 73f 74f
1:48pm  -  mph 1014.9mb 73f 74f
1:42pm  -  mph 1015mb 73f 74f
1:36pm  -  mph 1015.1mb 73f 74f
1:30pm  -  mph 1015.1mb 73f 74f
1:24pm  -  mph 1015.2mb 73f 74f
1:18pm  -  mph 1015.2mb 73f 74f
1:12pm  -  mph 1015.2mb 73f 74f
1:06pm  -  mph 1015.2mb 73f 74f
1:00pm  -  mph 1015.2mb 73f 74f
12:54pm  -  mph 1015.2mb 73f 74f
12:48pm  -  mph 1015.3mb 73f 74f
12:42pm  -  mph 1015.3mb 73f 74f
12:36pm  -  mph 1015.3mb 73f 74f
12:30pm  -  mph 1015.3mb 73f 74f
12:24pm  -  mph 1015.5mb 73f 74f
12:18pm  -  mph 1015.5mb 73f 74f
12:12pm  -  mph 1015.5mb 73f 74f
12:06pm  -  mph 1015.6mb 73f 74f
12:00pm  -  mph 1015.5mb 73f 73f
11:54am  -  mph 1015.5mb 73f 73f
11:48am  -  mph 1015.4mb 73f 73f
11:42am  -  mph 1015.6mb 73f 73f
11:36am  -  mph 1015.6mb 73f 73f
11:30am  -  mph 1015.6mb 73f 73f
11:24am  -  mph 1015.6mb 73f 73f
11:18am  -  mph 1015.6mb 73f 73f
11:12am  -  mph 1015.5mb 73f 73f
11:06am  -  mph 1015.5mb 73f 73f
11:00am  -  mph 1015.5mb 73f 73f
10:54am  -  mph 1015.5mb 73f 73f
10:48am  -  mph 1015.6mb 73f 73f
10:42am  -  mph 1015.6mb 73f 73f
10:36am  -  mph 1015.6mb 73f 73f
10:30am  -  mph 1015.5mb 73f 72f
10:24am  -  mph 1015.5mb 73f 72f
10:18am  -  mph 1015.4mb 73f 72f
10:12am  -  mph 1015.5mb 73f 72f
10:06am  -  mph 1015.4mb 73f 72f
10:00am  -  mph 1015.4mb 73f 72f
9:54am  -  mph 1015.4mb 73f 72f
9:48am  -  mph 1015.5mb 73f 73f
9:42am  -  mph 1015.3mb 73f 72f
9:36am  -  mph 1015.3mb 73f 72f
9:30am  -  mph 1015.3mb 73f 72f
9:24am  -  mph 1015.3mb 73f 72f
9:18am  -  mph 1015.3mb 73f 72f
9:12am  -  mph 1015.2mb 73f 72f
9:06am  -  mph 1015.1mb 73f 72f
9:00am  -  mph 1015.1mb 73f 72f
8:54am  -  mph 1015.1mb 73f 72f
8:48am  -  mph 1015.1mb 73f 72f
8:42am  -  mph 1015.1mb 73f 72f
8:36am  -  mph 1015mb 73f 72f
8:30am  -  mph 1014.9mb 73f 72f
8:24am  -  mph 1014.7mb 73f 72f
8:18am  -  mph 1014.7mb 73f 72f
8:12am  -  mph 1014.7mb 73f 72f
8:06am  -  mph 1014.7mb 73f 72f
8:00am  -  mph 1014.8mb 73f 72f
7:54am  -  mph 1014.8mb 73f 72f
7:48am  -  mph 1014.7mb 73f 72f
7:42am  -  mph 1014.7mb 73f 72f
7:36am  -  mph 1014.6mb 73f 72f
7:30am  -  mph 1014.7mb 73f 72f
7:24am  -  mph 1014.6mb 73f 72f
7:18am  -  mph 1014.5mb 73f 72f
7:12am  -  mph 1014.5mb 73f 72f
7:06am  -  mph 1014.2mb 73f 72f
7:00am  -  mph 1014.2mb 73f 72f
6:54am  -  mph 1014.1mb 73f 72f
6:48am  -  mph 1014.1mb 73f 72f
6:42am  -  mph 1013.9mb 73f 72f
6:36am  -  mph 1013.8mb 73f 72f
6:30am  -  mph 1013.8mb 73f 72f
6:24am  -  mph 1013.8mb 73f 72f
6:18am  -  mph 1013.6mb 73f 72f
6:12am  -  mph 1013.6mb 73f 72f
6:06am  -  mph 1013.5mb 73f 73f
6:00am  -  mph 1013.4mb 73f 73f
5:54am  -  mph 1013.3mb 73f 73f
5:48am  -  mph 1013.4mb 73f 73f
5:42am  -  mph 1013.4mb 73f 73f
5:36am  -  mph 1013.4mb 73f 73f
5:30am  -  mph 1013.4mb 73f 73f
5:24am  -  mph 1013.3mb 73f 73f
5:18am  -  mph 1013.1mb 73f 73f
5:12am  -  mph 1013mb 73f 73f
5:06am  -  mph 1012.9mb 73f 73f
5:00am  -  mph 1012.9mb 73f 73f
4:54am  -  mph 1012.9mb 73f 73f
4:48am  -  mph 1013mb 73f 73f
4:42am  -  mph 1013.1mb 73f 73f
4:36am  -  mph 1012.9mb 73f 73f
4:30am  -  mph 1012.9mb 73f 73f
4:24am  -  mph 1012.9mb 73f 73f
4:18am  -  mph 1012.9mb 73f 73f
4:12am  -  mph 1012.9mb 73f 73f
4:06am  -  mph 1012.8mb 73f 73f
4:00am  -  mph 1012.8mb 73f 73f
3:54am  -  mph 1012.9mb 73f 73f
3:48am  -  mph 1012.9mb 73f 73f
3:42am  -  mph 1012.9mb 73f 73f
3:36am  -  mph 1013mb 73f 73f
3:30am  -  mph 1012.9mb 73f 73f
3:24am  -  mph 1012.8mb 73f 73f
3:18am  -  mph 1012.8mb 73f 73f
3:12am  -  mph 1012.7mb 73f 73f
3:06am  -  mph 1012.6mb 73f 73f
3:00am  -  mph 1012.6mb 73f 73f
2:54am  -  mph 1012.6mb 73f 73f
2:48am  -  mph 1012.7mb 73f 73f
2:42am  -  mph 1012.7mb 73f 73f
2:36am  -  mph 1012.7mb 73f 73f
2:30am  -  mph 1012.7mb 73f 73f
2:24am  -  mph 1012.7mb 73f 73f
2:18am  -  mph 1012.7mb 73f 73f
2:12am  -  mph 1012.7mb 73f 73f
2:06am  -  mph 1012.7mb 73f 73f
2:00am  -  mph 1012.7mb 73f 73f
1:54am  -  mph 1012.7mb 73f 73f
1:48am  -  mph 1012.7mb 73f 73f
1:42am  -  mph 1012.7mb 73f 73f
1:36am  -  mph 1012.6mb 73f 73f
1:30am  -  mph 1012.6mb 73f 73f
1:24am  -  mph 1012.6mb 73f 73f
1:18am  -  mph 1012.6mb 73f 73f
1:12am  -  mph 1012.5mb 73f 73f
1:06am  -  mph 1012.4mb 73f 73f
1:00am  -  mph 1012.4mb 73f 73f
12:54am  -  mph 1012.3mb 73f 73f
12:48am  -  mph 1012.3mb 73f 73f
12:42am  -  mph 1012.3mb 73f 73f
12:36am  -  mph 1012.3mb 73f 73f
12:30am  -  mph 1012.3mb 73f 73f
12:24am  -  mph 1012.3mb 73f 73f
12:18am  -  mph 1012.3mb 73f 73f
12:12am  -  mph 1012.3mb 73f 73f
12:06am  -  mph 1012.3mb 73f 73f
12:00am  -  mph 1012.2mb 73f 73f
Wed 09/20 11:54pm  -  mph 1012.2mb 73f 73f
11:48pm  -  mph 1012.2mb 73f 73f
11:42pm  -  mph 1012.3mb 73f 73f
11:36pm  -  mph 1012.3mb 73f 73f
11:30pm  -  mph 1012.3mb 73f 73f
11:24pm  -  mph 1012.3mb 73f 73f
11:18pm  -  mph 1012.3mb 73f 73f
11:12pm  -  mph 1012.2mb 73f 73f
11:06pm  -  mph 1012.2mb 73f 73f
11:00pm  -  mph 1012.1mb 73f 73f
10:54pm  -  mph 1012.1mb 73f 73f
10:48pm  -  mph 1012.1mb 73f 73f
10:42pm  -  mph 1012.1mb 73f 73f
10:36pm  -  mph 1011.9mb 73f 73f
10:30pm  -  mph 1011.9mb 73f 73f
10:24pm  -  mph 1011.9mb 73f 74f
10:18pm  -  mph 1012mb 73f 74f
10:12pm  -  mph 1012.1mb 73f 74f
10:06pm  -  mph 1012.1mb 73f 74f
10:00pm  -  mph 1012.2mb 73f 74f
9:54pm  -  mph 1012.1mb 73f 74f
9:48pm  -  mph 1012.2mb 73f 74f
9:42pm  -  mph 1012.3mb 73f 74f
9:36pm  -  mph 1012.3mb 73f 74f
9:30pm  -  mph 1012.3mb 73f 74f
9:24pm  -  mph 1012.2mb 73f 74f
9:18pm  -  mph 1012.3mb 73f 74f
9:12pm  -  mph 1012.3mb 73f 74f
9:06pm  -  mph 1012.3mb 73f 74f
9:00pm  -  mph 1012.3mb 73f 74f
8:54pm  -  mph 1012.2mb 73f 74f